Mahanoy Plane, PA (17949)

6:23 AM EST on December 05, 2016 (GMT -0500)
Shenandoah Heights | | Change Station

Elev 1634 ft 40.83 °N, 76.20 °W | Updated 22 seconds ago

Overcast
Overcast
30.8 °F
Feels Like 27 °F
N
4.0
Wind Variable Wind from SSE

Today
High -- | Low -- °F
--% Chance of Precip.
Yesterday
High -- | Low -- °F
Precip. -- in
Pressure 29.99 in
Visibility 5.0 miles
Clouds Overcast 400 ft
Windchill 27 °F
Dew Point 29 °F
Humidity 93%
Rainfall 0.00 in
Snow Depth Not available.
7:14 AM 4:37 PM
Waxing Crescent, 31% visible
METAR KMUI 051058Z AUTO 02002KT 5SM BR OVC004 01/01 A2997 RMK AO2 RAB32E53 SLP156 P0001 T00050005
Pressure 29.99 in
Visibility 5.0 miles
Clouds Overcast 400 ft
Windchill 27 °F
Dew Point 29 °F
Humidity 93%
Rainfall 0.00 in
Snow Depth Not available.
7:14 AM 4:37 PM
Waxing Crescent, 31% visible
METAR KMUI 051058Z AUTO 02002KT 5SM BR OVC004 01/01 A2997 RMK AO2 RAB32E53 SLP156 P0001 T00050005

10-Day Weather Forecast

Almanac

Astronomy

Dec. 05, 2016 Rise Set
Actual Time
Civil Twilight
Nautical Twilight
Astronomical Twilight
Moon
Length of Visible Light
Length of Day
Tomorrow will be .
, % of the Moon is Illuminated

Today's Extremes

State Highs State Lows

Community

WunderPhotos

Upload Photos

1,955,777 photos uploaded!

WunderBlog® & News

Nearby

Air Quality

  Air Quality AQ Index Pollutant
Not available.

Snow Depth

Station Depth Elevation

Earthquake Activity

City Distance Mag. Time & Date
Minimum magnitude displayed is 2.5.

Coastal Water Temperatures

Place Temperature

Stations

Nearby Weather Stations

Station Location Temp. Windchill Dew Point Humidity Wind Precip. Elev Updated Type
                   

Watches & Warnings

There are currently no watches in effect.